sensor_id;sensor_type;location;lat;lon;timestamp;P1;durP1;ratioP1;P2;durP2;ratioP2
32321;SDS011;61553;48.994;8.940;2022-07-01T00:01:59;3.13;;;0.90;;
32321;SDS011;61553;48.994;8.940;2022-07-01T00:04:25;3.60;;;0.82;;
32321;SDS011;61553;48.994;8.940;2022-07-01T00:06:55;1.85;;;0.77;;
32321;SDS011;61553;48.994;8.940;2022-07-01T00:09:21;3.83;;;0.57;;
32321;SDS011;61553;48.994;8.940;2022-07-01T00:11:47;3.38;;;0.90;;
32321;SDS011;61553;48.994;8.940;2022-07-01T00:14:13;2.75;;;0.85;;
32321;SDS011;61553;48.994;8.940;2022-07-01T00:16:38;5.05;;;1.05;;
32321;SDS011;61553;48.994;8.940;2022-07-01T00:19:04;1.85;;;0.90;;
32321;SDS011;61553;48.994;8.940;2022-07-01T00:21:30;3.65;;;0.80;;
32321;SDS011;61553;48.994;8.940;2022-07-01T00:23:56;2.83;;;0.88;;
32321;SDS011;61553;48.994;8.940;2022-07-01T00:26:22;3.42;;;0.75;;
32321;SDS011;61553;48.994;8.940;2022-07-01T00:28:48;3.40;;;0.80;;
32321;SDS011;61553;48.994;8.940;2022-07-01T00:31:14;2.95;;;1.05;;
32321;SDS011;61553;48.994;8.940;2022-07-01T00:33:39;1.58;;;0.70;;
32321;SDS011;61553;48.994;8.940;2022-07-01T00:36:05;1.77;;;0.80;;
32321;SDS011;61553;48.994;8.940;2022-07-01T00:38:31;2.70;;;0.77;;
32321;SDS011;61553;48.994;8.940;2022-07-01T00:40:57;3.08;;;0.55;;
32321;SDS011;61553;48.994;8.940;2022-07-01T00:43:23;1.85;;;0.70;;
32321;SDS011;61553;48.994;8.940;2022-07-01T00:45:49;3.05;;;0.90;;
32321;SDS011;61553;48.994;8.940;2022-07-01T00:48:18;2.13;;;1.00;;
32321;SDS011;61553;48.994;8.940;2022-07-01T00:50:46;3.30;;;0.77;;
32321;SDS011;61553;48.994;8.940;2022-07-01T00:53:13;3.75;;;0.70;;
32321;SDS011;61553;48.994;8.940;2022-07-01T00:55:40;8.63;;;1.20;;
32321;SDS011;61553;48.994;8.940;2022-07-01T00:58:07;3.92;;;1.00;;
32321;SDS011;61553;48.994;8.940;2022-07-01T01:00:33;2.95;;;0.80;;
32321;SDS011;61553;48.994;8.940;2022-07-01T01:03:01;1.17;;;0.50;;
32321;SDS011;61553;48.994;8.940;2022-07-01T01:05:26;2.30;;;0.85;;
32321;SDS011;61553;48.994;8.940;2022-07-01T01:07:52;2.53;;;0.90;;
32321;SDS011;61553;48.994;8.940;2022-07-01T01:10:18;2.58;;;0.90;;
32321;SDS011;61553;48.994;8.940;2022-07-01T01:12:44;2.38;;;0.70;;
32321;SDS011;61553;48.994;8.940;2022-07-01T01:15:10;1.33;;;0.68;;
32321;SDS011;61553;48.994;8.940;2022-07-01T01:17:42;1.60;;;0.70;;
32321;SDS011;61553;48.994;8.940;2022-07-01T01:20:07;3.28;;;0.82;;
32321;SDS011;61553;48.994;8.940;2022-07-01T01:22:33;2.30;;;0.80;;
32321;SDS011;61553;48.994;8.940;2022-07-01T01:24:59;1.83;;;0.68;;
32321;SDS011;61553;48.994;8.940;2022-07-01T01:27:25;1.27;;;0.55;;
32321;SDS011;61553;48.994;8.940;2022-07-01T01:29:50;2.10;;;0.75;;
32321;SDS011;61553;48.994;8.940;2022-07-01T01:32:16;3.00;;;0.80;;
32321;SDS011;61553;48.994;8.940;2022-07-01T01:34:41;1.38;;;0.65;;
32321;SDS011;61553;48.994;8.940;2022-07-01T01:37:07;2.55;;;0.90;;
32321;SDS011;61553;48.994;8.940;2022-07-01T01:39:34;2.67;;;0.88;;
32321;SDS011;61553;48.994;8.940;2022-07-01T01:42:02;2.38;;;0.57;;
32321;SDS011;61553;48.994;8.940;2022-07-01T01:44:29;3.25;;;0.70;;
32321;SDS011;61553;48.994;8.940;2022-07-01T01:46:55;2.88;;;0.80;;
32321;SDS011;61553;48.994;8.940;2022-07-01T01:49:20;1.55;;;0.60;;
32321;SDS011;61553;48.994;8.940;2022-07-01T01:51:46;1.25;;;0.60;;
32321;SDS011;61553;48.994;8.940;2022-07-01T01:54:12;3.40;;;0.75;;
32321;SDS011;61553;48.994;8.940;2022-07-01T01:56:37;4.68;;;1.08;;
32321;SDS011;61553;48.994;8.940;2022-07-01T01:59:03;4.95;;;0.88;;
32321;SDS011;61553;48.994;8.940;2022-07-01T02:01:29;1.95;;;0.95;;
32321;SDS011;61553;48.994;8.940;2022-07-01T02:03:55;1.38;;;0.77;;
32321;SDS011;61553;48.994;8.940;2022-07-01T02:06:22;1.67;;;0.73;;
32321;SDS011;61553;48.994;8.940;2022-07-01T02:08:48;3.42;;;0.70;;
32321;SDS011;61553;48.994;8.940;2022-07-01T02:11:13;2.80;;;0.70;;
32321;SDS011;61553;48.994;8.940;2022-07-01T02:13:39;2.83;;;0.73;;
32321;SDS011;61553;48.994;8.940;2022-07-01T02:16:05;2.83;;;0.60;;
32321;SDS011;61553;48.994;8.940;2022-07-01T02:18:31;2.30;;;0.80;;
32321;SDS011;61553;48.994;8.940;2022-07-01T02:20:57;2.58;;;0.57;;
32321;SDS011;61553;48.994;8.940;2022-07-01T02:23:23;2.00;;;0.70;;
32321;SDS011;61553;48.994;8.940;2022-07-01T02:25:49;5.25;;;0.80;;
32321;SDS011;61553;48.994;8.940;2022-07-01T02:28:15;4.10;;;0.82;;
32321;SDS011;61553;48.994;8.940;2022-07-01T02:30:41;2.42;;;0.70;;
32321;SDS011;61553;48.994;8.940;2022-07-01T02:33:07;0.75;;;0.55;;
32321;SDS011;61553;48.994;8.940;2022-07-01T02:35:37;2.90;;;0.80;;
32321;SDS011;61553;48.994;8.940;2022-07-01T02:38:06;1.52;;;0.60;;
32321;SDS011;61553;48.994;8.940;2022-07-01T02:40:33;2.38;;;0.70;;
32321;SDS011;61553;48.994;8.940;2022-07-01T02:43:07;2.53;;;0.70;;
32321;SDS011;61553;48.994;8.940;2022-07-01T02:45:33;1.60;;;0.77;;
32321;SDS011;61553;48.994;8.940;2022-07-01T02:47:59;2.45;;;0.90;;
32321;SDS011;61553;48.994;8.940;2022-07-01T02:50:26;3.47;;;0.75;;
32321;SDS011;61553;48.994;8.940;2022-07-01T02:52:53;3.03;;;0.70;;
32321;SDS011;61553;48.994;8.940;2022-07-01T02:55:18;3.67;;;0.70;;
32321;SDS011;61553;48.994;8.940;2022-07-01T02:57:44;3.30;;;1.20;;
32321;SDS011;61553;48.994;8.940;2022-07-01T03:00:11;5.68;;;0.93;;
32321;SDS011;61553;48.994;8.940;2022-07-01T03:02:39;1.70;;;0.63;;
32321;SDS011;61553;48.994;8.940;2022-07-01T03:05:05;1.60;;;0.75;;
32321;SDS011;61553;48.994;8.940;2022-07-01T03:07:31;2.22;;;0.82;;
32321;SDS011;61553;48.994;8.940;2022-07-01T03:09:57;3.03;;;0.82;;
32321;SDS011;61553;48.994;8.940;2022-07-01T03:12:22;3.45;;;1.00;;
32321;SDS011;61553;48.994;8.940;2022-07-01T03:14:56;1.85;;;0.80;;
32321;SDS011;61553;48.994;8.940;2022-07-01T03:17:23;1.75;;;0.85;;
32321;SDS011;61553;48.994;8.940;2022-07-01T03:19:50;1.98;;;0.80;;
32321;SDS011;61553;48.994;8.940;2022-07-01T03:22:22;4.88;;;0.90;;
32321;SDS011;61553;48.994;8.940;2022-07-01T03:24:52;2.92;;;0.93;;
32321;SDS011;61553;48.994;8.940;2022-07-01T03:27:19;2.58;;;0.75;;
32321;SDS011;61553;48.994;8.940;2022-07-01T03:29:45;1.98;;;1.20;;
32321;SDS011;61553;48.994;8.940;2022-07-01T03:32:11;3.35;;;1.40;;
32321;SDS011;61553;48.994;8.940;2022-07-01T03:34:37;2.47;;;1.10;;
32321;SDS011;61553;48.994;8.940;2022-07-01T03:37:05;3.22;;;1.20;;
32321;SDS011;61553;48.994;8.940;2022-07-01T03:39:31;2.47;;;0.93;;
32321;SDS011;61553;48.994;8.940;2022-07-01T03:41:57;2.05;;;1.15;;
32321;SDS011;61553;48.994;8.940;2022-07-01T03:44:23;5.60;;;1.13;;
32321;SDS011;61553;48.994;8.940;2022-07-01T03:46:48;2.97;;;1.10;;
32321;SDS011;61553;48.994;8.940;2022-07-01T03:49:14;5.82;;;0.90;;
32321;SDS011;61553;48.994;8.940;2022-07-01T03:51:40;4.43;;;1.20;;
32321;SDS011;61553;48.994;8.940;2022-07-01T03:54:05;2.90;;;1.27;;
32321;SDS011;61553;48.994;8.940;2022-07-01T03:56:49;4.75;;;1.30;;
32321;SDS011;61553;48.994;8.940;2022-07-01T03:59:15;6.05;;;1.52;;
32321;SDS011;61553;48.994;8.940;2022-07-01T04:01:41;1.75;;;1.05;;
32321;SDS011;61553;48.994;8.940;2022-07-01T04:04:06;2.60;;;1.27;;
32321;SDS011;61553;48.994;8.940;2022-07-01T04:06:32;3.38;;;1.27;;
32321;SDS011;61553;48.994;8.940;2022-07-01T04:08:58;3.67;;;1.20;;
32321;SDS011;61553;48.994;8.940;2022-07-01T04:11:24;4.32;;;1.40;;
32321;SDS011;61553;48.994;8.940;2022-07-01T04:13:49;6.18;;;1.40;;
32321;SDS011;61553;48.994;8.940;2022-07-01T04:16:18;3.85;;;1.55;;
32321;SDS011;61553;48.994;8.940;2022-07-01T04:18:48;5.72;;;1.38;;
32321;SDS011;61553;48.994;8.940;2022-07-01T04:21:14;3.70;;;1.50;;
32321;SDS011;61553;48.994;8.940;2022-07-01T04:23:58;4.50;;;1.70;;
32321;SDS011;61553;48.994;8.940;2022-07-01T04:26:24;5.35;;;1.70;;
32321;SDS011;61553;48.994;8.940;2022-07-01T04:28:50;3.15;;;1.80;;
32321;SDS011;61553;48.994;8.940;2022-07-01T04:31:16;4.30;;;1.90;;
32321;SDS011;61553;48.994;8.940;2022-07-01T04:33:42;3.33;;;1.70;;
32321;SDS011;61553;48.994;8.940;2022-07-01T04:36:08;4.15;;;1.70;;
32321;SDS011;61553;48.994;8.940;2022-07-01T04:38:33;4.82;;;1.80;;
32321;SDS011;61553;48.994;8.940;2022-07-01T04:40:59;5.63;;;1.83;;
32321;SDS011;61553;48.994;8.940;2022-07-01T04:43:43;2.70;;;1.60;;
32321;SDS011;61553;48.994;8.940;2022-07-01T04:46:09;4.78;;;1.70;;
32321;SDS011;61553;48.994;8.940;2022-07-01T04:48:34;3.72;;;1.73;;
32321;SDS011;61553;48.994;8.940;2022-07-01T04:51:00;3.08;;;1.83;;
32321;SDS011;61553;48.994;8.940;2022-07-01T04:53:25;5.75;;;2.10;;
32321;SDS011;61553;48.994;8.940;2022-07-01T04:55:51;7.60;;;1.80;;
32321;SDS011;61553;48.994;8.940;2022-07-01T04:58:17;5.90;;;1.52;;
32321;SDS011;61553;48.994;8.940;2022-07-01T05:00:42;4.88;;;1.50;;
32321;SDS011;61553;48.994;8.940;2022-07-01T05:03:08;3.63;;;1.80;;
32321;SDS011;61553;48.994;8.940;2022-07-01T05:05:34;7.70;;;1.75;;
32321;SDS011;61553;48.994;8.940;2022-07-01T05:07:59;4.43;;;1.67;;
32321;SDS011;61553;48.994;8.940;2022-07-01T05:10:25;3.75;;;1.75;;
32321;SDS011;61553;48.994;8.940;2022-07-01T05:12:51;6.30;;;1.92;;
32321;SDS011;61553;48.994;8.940;2022-07-01T05:15:16;3.72;;;1.75;;
32321;SDS011;61553;48.994;8.940;2022-07-01T05:17:42;5.15;;;1.88;;
32321;SDS011;61553;48.994;8.940;2022-07-01T05:20:26;3.40;;;1.60;;
32321;SDS011;61553;48.994;8.940;2022-07-01T05:23:10;5.43;;;1.67;;
32321;SDS011;61553;48.994;8.940;2022-07-01T05:25:36;3.15;;;1.42;;
32321;SDS011;61553;48.994;8.940;2022-07-01T05:28:01;5.35;;;1.70;;
32321;SDS011;61553;48.994;8.940;2022-07-01T05:30:27;4.25;;;1.35;;
32321;SDS011;61553;48.994;8.940;2022-07-01T05:32:52;3.42;;;1.58;;
32321;SDS011;61553;48.994;8.940;2022-07-01T05:35:18;5.00;;;1.40;;
32321;SDS011;61553;48.994;8.940;2022-07-01T05:37:44;3.10;;;1.23;;
32321;SDS011;61553;48.994;8.940;2022-07-01T05:40:09;2.38;;;1.10;;
32321;SDS011;61553;48.994;8.940;2022-07-01T05:42:35;5.65;;;1.48;;
32321;SDS011;61553;48.994;8.940;2022-07-01T05:45:02;5.72;;;1.48;;
32321;SDS011;61553;48.994;8.940;2022-07-01T05:47:28;5.40;;;1.10;;
32321;SDS011;61553;48.994;8.940;2022-07-01T05:49:53;5.30;;;1.23;;
32321;SDS011;61553;48.994;8.940;2022-07-01T05:52:19;1.65;;;1.10;;
32321;SDS011;61553;48.994;8.940;2022-07-01T05:54:44;2.90;;;1.30;;
32321;SDS011;61553;48.994;8.940;2022-07-01T05:57:10;4.65;;;1.15;;
32321;SDS011;61553;48.994;8.940;2022-07-01T05:59:36;2.50;;;0.77;;
32321;SDS011;61553;48.994;8.940;2022-07-01T06:02:02;8.00;;;1.25;;
32321;SDS011;61553;48.994;8.940;2022-07-01T06:04:28;3.33;;;1.20;;
32321;SDS011;61553;48.994;8.940;2022-07-01T06:06:53;3.63;;;1.30;;
32321;SDS011;61553;48.994;8.940;2022-07-01T06:09:19;2.13;;;1.13;;
32321;SDS011;61553;48.994;8.940;2022-07-01T06:11:44;2.15;;;0.93;;
32321;SDS011;61553;48.994;8.940;2022-07-01T06:14:11;2.42;;;1.17;;
32321;SDS011;61553;48.994;8.940;2022-07-01T06:16:36;4.10;;;1.40;;
32321;SDS011;61553;48.994;8.940;2022-07-01T06:19:03;3.42;;;1.38;;
32321;SDS011;61553;48.994;8.940;2022-07-01T06:21:29;2.53;;;1.30;;
32321;SDS011;61553;48.994;8.940;2022-07-01T06:23:55;3.22;;;1.42;;
32321;SDS011;61553;48.994;8.940;2022-07-01T06:26:21;2.47;;;1.38;;
32321;SDS011;61553;48.994;8.940;2022-07-01T06:28:46;5.18;;;1.35;;
32321;SDS011;61553;48.994;8.940;2022-07-01T06:31:12;2.03;;;1.20;;
32321;SDS011;61553;48.994;8.940;2022-07-01T06:33:37;2.97;;;1.38;;
32321;SDS011;61553;48.994;8.940;2022-07-01T06:36:03;3.67;;;1.25;;
32321;SDS011;61553;48.994;8.940;2022-07-01T06:38:29;4.75;;;1.55;;
32321;SDS011;61553;48.994;8.940;2022-07-01T06:40:55;3.78;;;1.50;;
32321;SDS011;61553;48.994;8.940;2022-07-01T06:43:39;2.88;;;1.05;;
32321;SDS011;61553;48.994;8.940;2022-07-01T06:46:05;3.20;;;1.30;;
32321;SDS011;61553;48.994;8.940;2022-07-01T06:48:30;7.68;;;1.85;;
32321;SDS011;61553;48.994;8.940;2022-07-01T06:50:56;4.55;;;1.38;;
32321;SDS011;61553;48.994;8.940;2022-07-01T06:53:22;5.00;;;1.83;;
32321;SDS011;61553;48.994;8.940;2022-07-01T06:55:47;4.35;;;1.75;;
32321;SDS011;61553;48.994;8.940;2022-07-01T06:58:13;3.22;;;2.28;;
32321;SDS011;61553;48.994;8.940;2022-07-01T07:00:38;8.65;;;4.00;;
32321;SDS011;61553;48.994;8.940;2022-07-01T07:03:04;5.45;;;2.70;;
32321;SDS011;61553;48.994;8.940;2022-07-01T07:05:30;10.13;;;3.78;;
32321;SDS011;61553;48.994;8.940;2022-07-01T07:07:56;6.43;;;5.05;;
32321;SDS011;61553;48.994;8.940;2022-07-01T07:10:22;5.18;;;2.58;;
32321;SDS011;61553;48.994;8.940;2022-07-01T07:12:48;7.30;;;3.65;;
32321;SDS011;61553;48.994;8.940;2022-07-01T07:15:14;4.30;;;1.95;;
32321;SDS011;61553;48.994;8.940;2022-07-01T07:17:40;4.32;;;2.40;;
32321;SDS011;61553;48.994;8.940;2022-07-01T07:20:07;4.70;;;2.20;;
32321;SDS011;61553;48.994;8.940;2022-07-01T07:22:33;5.47;;;1.90;;
32321;SDS011;61553;48.994;8.940;2022-07-01T07:24:59;3.33;;;2.03;;
32321;SDS011;61553;48.994;8.940;2022-07-01T07:27:24;2.70;;;1.80;;
32321;SDS011;61553;48.994;8.940;2022-07-01T07:29:50;3.40;;;1.70;;
32321;SDS011;61553;48.994;8.940;2022-07-01T07:32:16;3.92;;;2.08;;
32321;SDS011;61553;48.994;8.940;2022-07-01T07:34:42;6.82;;;1.70;;
32321;SDS011;61553;48.994;8.940;2022-07-01T07:37:07;3.33;;;1.67;;
32321;SDS011;61553;48.994;8.940;2022-07-01T07:39:33;4.53;;;1.95;;
32321;SDS011;61553;48.994;8.940;2022-07-01T07:41:59;3.78;;;1.88;;
32321;SDS011;61553;48.994;8.940;2022-07-01T07:44:25;3.92;;;1.80;;
32321;SDS011;61553;48.994;8.940;2022-07-01T07:46:50;5.60;;;1.90;;
32321;SDS011;61553;48.994;8.940;2022-07-01T07:49:16;4.90;;;1.77;;
32321;SDS011;61553;48.994;8.940;2022-07-01T07:51:42;2.67;;;1.70;;
32321;SDS011;61553;48.994;8.940;2022-07-01T07:54:07;5.28;;;2.28;;
32321;SDS011;61553;48.994;8.940;2022-07-01T07:56:33;3.83;;;1.90;;
32321;SDS011;61553;48.994;8.940;2022-07-01T07:58:59;3.95;;;1.63;;
32321;SDS011;61553;48.994;8.940;2022-07-01T08:01:24;3.90;;;2.20;;
32321;SDS011;61553;48.994;8.940;2022-07-01T08:03:50;4.47;;;2.20;;
32321;SDS011;61553;48.994;8.940;2022-07-01T08:06:17;4.70;;;1.92;;
32321;SDS011;61553;48.994;8.940;2022-07-01T08:08:43;3.45;;;1.90;;
32321;SDS011;61553;48.994;8.940;2022-07-01T08:11:09;3.30;;;1.98;;
32321;SDS011;61553;48.994;8.940;2022-07-01T08:13:34;4.93;;;1.95;;
32321;SDS011;61553;48.994;8.940;2022-07-01T08:16:00;4.00;;;2.10;;
32321;SDS011;61553;48.994;8.940;2022-07-01T08:18:25;3.03;;;1.80;;
32321;SDS011;61553;48.994;8.940;2022-07-01T08:20:51;5.63;;;2.00;;
32321;SDS011;61553;48.994;8.940;2022-07-01T08:23:18;3.75;;;2.08;;
32321;SDS011;61553;48.994;8.940;2022-07-01T08:25:45;3.90;;;2.35;;
32321;SDS011;61553;48.994;8.940;2022-07-01T08:28:11;3.33;;;2.17;;
32321;SDS011;61553;48.994;8.940;2022-07-01T08:30:36;3.60;;;2.25;;
32321;SDS011;61553;48.994;8.940;2022-07-01T08:33:03;3.47;;;2.15;;
32321;SDS011;61553;48.994;8.940;2022-07-01T08:35:29;5.50;;;2.10;;
32321;SDS011;61553;48.994;8.940;2022-07-01T08:37:55;5.05;;;2.08;;
32321;SDS011;61553;48.994;8.940;2022-07-01T08:40:24;4.88;;;2.60;;
32321;SDS011;61553;48.994;8.940;2022-07-01T08:42:55;6.78;;;2.60;;
32321;SDS011;61553;48.994;8.940;2022-07-01T08:45:25;5.47;;;3.92;;
32321;SDS011;61553;48.994;8.940;2022-07-01T08:47:52;6.55;;;2.88;;
32321;SDS011;61553;48.994;8.940;2022-07-01T08:50:22;5.40;;;2.35;;
32321;SDS011;61553;48.994;8.940;2022-07-01T08:52:49;5.28;;;2.55;;
32321;SDS011;61553;48.994;8.940;2022-07-01T08:55:15;5.22;;;2.90;;
32321;SDS011;61553;48.994;8.940;2022-07-01T08:57:40;4.82;;;2.67;;
32321;SDS011;61553;48.994;8.940;2022-07-01T09:00:07;4.72;;;2.45;;
32321;SDS011;61553;48.994;8.940;2022-07-01T09:05:22;5.05;;;2.50;;
32321;SDS011;61553;48.994;8.940;2022-07-01T09:07:49;6.70;;;2.85;;
32321;SDS011;61553;48.994;8.940;2022-07-01T09:10:20;8.57;;;2.60;;
32321;SDS011;61553;48.994;8.940;2022-07-01T09:12:46;7.15;;;2.95;;
32321;SDS011;61553;48.994;8.940;2022-07-01T09:15:19;4.50;;;2.40;;
32321;SDS011;61553;48.994;8.940;2022-07-01T09:17:53;5.70;;;2.10;;
32321;SDS011;61553;48.994;8.940;2022-07-01T09:20:24;3.42;;;2.22;;
32321;SDS011;61553;48.994;8.940;2022-07-01T09:23:08;3.58;;;2.13;;
32321;SDS011;61553;48.994;8.940;2022-07-01T09:25:44;5.45;;;2.00;;
32321;SDS011;61553;48.994;8.940;2022-07-01T09:28:13;4.05;;;2.05;;
32321;SDS011;61553;48.994;8.940;2022-07-01T09:30:48;6.68;;;1.42;;
32321;SDS011;61553;48.994;8.940;2022-07-01T09:33:19;4.82;;;1.70;;
32321;SDS011;61553;48.994;8.940;2022-07-01T09:35:49;3.80;;;1.77;;
32321;SDS011;61553;48.994;8.940;2022-07-01T09:38:19;2.92;;;1.60;;
32321;SDS011;61553;48.994;8.940;2022-07-01T09:40:54;4.32;;;1.60;;
32321;SDS011;61553;48.994;8.940;2022-07-01T09:43:24;3.67;;;2.30;;
32321;SDS011;61553;48.994;8.940;2022-07-01T09:46:04;3.47;;;1.33;;
32321;SDS011;61553;48.994;8.940;2022-07-01T09:50:59;4.22;;;1.20;;
32321;SDS011;61553;48.994;8.940;2022-07-01T09:53:28;2.55;;;1.08;;
32321;SDS011;61553;48.994;8.940;2022-07-01T09:55:54;3.33;;;1.40;;
32321;SDS011;61553;48.994;8.940;2022-07-01T09:58:20;3.20;;;1.20;;
32321;SDS011;61553;48.994;8.940;2022-07-01T10:00:46;3.50;;;1.20;;
32321;SDS011;61553;48.994;8.940;2022-07-01T10:03:12;3.75;;;1.40;;
32321;SDS011;61553;48.994;8.940;2022-07-01T10:13:30;2.38;;;1.15;;
32321;SDS011;61553;48.994;8.940;2022-07-01T10:15:58;2.33;;;1.23;;
32321;SDS011;61553;48.994;8.940;2022-07-01T10:18:26;2.63;;;1.30;;
32321;SDS011;61553;48.994;8.940;2022-07-01T10:20:53;4.63;;;1.35;;
32321;SDS011;61553;48.994;8.940;2022-07-01T10:23:21;2.63;;;1.40;;
32321;SDS011;61553;48.994;8.940;2022-07-01T10:25:48;5.07;;;1.40;;
32321;SDS011;61553;48.994;8.940;2022-07-01T10:28:16;2.60;;;1.20;;
32321;SDS011;61553;48.994;8.940;2022-07-01T10:41:29;3.83;;;1.60;;
32321;SDS011;61553;48.994;8.940;2022-07-01T10:43:57;2.78;;;1.40;;
32321;SDS011;61553;48.994;8.940;2022-07-01T10:49:10;4.07;;;1.30;;
32321;SDS011;61553;48.994;8.940;2022-07-01T10:59:54;5.35;;;1.73;;
32321;SDS011;61553;48.994;8.940;2022-07-01T11:04:53;2.60;;;1.42;;
32321;SDS011;61553;48.994;8.940;2022-07-01T11:07:25;4.00;;;1.52;;
32321;SDS011;61553;48.994;8.940;2022-07-01T11:09:52;2.90;;;1.65;;
32321;SDS011;61553;48.994;8.940;2022-07-01T11:12:19;5.03;;;1.77;;
32321;SDS011;61553;48.994;8.940;2022-07-01T11:14:48;9.30;;;2.40;;
32321;SDS011;61553;48.994;8.940;2022-07-01T11:17:14;4.90;;;2.00;;
32321;SDS011;61553;48.994;8.940;2022-07-01T11:19:42;8.32;;;2.03;;
32321;SDS011;61553;48.994;8.940;2022-07-01T11:22:17;3.03;;;1.38;;
32321;SDS011;61553;48.994;8.940;2022-07-01T11:24:44;2.95;;;1.73;;
32321;SDS011;61553;48.994;8.940;2022-07-01T11:27:09;3.45;;;1.60;;
32321;SDS011;61553;48.994;8.940;2022-07-01T11:29:35;2.55;;;1.40;;
32321;SDS011;61553;48.994;8.940;2022-07-01T11:32:01;5.15;;;1.90;;
32321;SDS011;61553;48.994;8.940;2022-07-01T11:34:27;2.88;;;1.10;;
32321;SDS011;61553;48.994;8.940;2022-07-01T11:36:53;3.10;;;1.50;;
32321;SDS011;61553;48.994;8.940;2022-07-01T11:39:38;1.83;;;1.00;;
32321;SDS011;61553;48.994;8.940;2022-07-01T11:42:07;4.68;;;1.20;;
32321;SDS011;61553;48.994;8.940;2022-07-01T11:44:37;6.68;;;1.38;;
32321;SDS011;61553;48.994;8.940;2022-07-01T11:47:04;4.65;;;1.35;;
32321;SDS011;61553;48.994;8.940;2022-07-01T11:49:31;4.35;;;1.70;;
32321;SDS011;61553;48.994;8.940;2022-07-01T11:51:58;3.08;;;1.35;;
32321;SDS011;61553;48.994;8.940;2022-07-01T11:59:36;3.90;;;1.17;;
32321;SDS011;61553;48.994;8.940;2022-07-01T12:02:05;4.18;;;1.08;;
32321;SDS011;61553;48.994;8.940;2022-07-01T12:04:32;3.60;;;1.20;;
32321;SDS011;61553;48.994;8.940;2022-07-01T12:06:58;2.90;;;0.95;;
32321;SDS011;61553;48.994;8.940;2022-07-01T12:09:25;2.72;;;1.23;;
32321;SDS011;61553;48.994;8.940;2022-07-01T12:11:52;4.00;;;1.20;;
32321;SDS011;61553;48.994;8.940;2022-07-01T12:14:22;2.10;;;0.60;;
32321;SDS011;61553;48.994;8.940;2022-07-01T12:16:56;2.28;;;0.85;;
32321;SDS011;61553;48.994;8.940;2022-07-01T12:19:29;2.28;;;1.20;;
32321;SDS011;61553;48.994;8.940;2022-07-01T12:22:10;5.35;;;1.33;;
32321;SDS011;61553;48.994;8.940;2022-07-01T12:24:38;3.50;;;1.23;;
32321;SDS011;61553;48.994;8.940;2022-07-01T12:27:04;2.13;;;1.10;;
32321;SDS011;61553;48.994;8.940;2022-07-01T12:32:16;2.15;;;1.10;;
32321;SDS011;61553;48.994;8.940;2022-07-01T12:37:15;2.40;;;0.95;;
32321;SDS011;61553;48.994;8.940;2022-07-01T12:39:47;4.33;;;1.17;;
32321;SDS011;61553;48.994;8.940;2022-07-01T12:44:45;2.28;;;1.00;;
32321;SDS011;61553;48.994;8.940;2022-07-01T12:47:18;5.25;;;1.10;;
32321;SDS011;61553;48.994;8.940;2022-07-01T12:50:14;2.50;;;1.08;;
32321;SDS011;61553;48.994;8.940;2022-07-01T12:52:43;3.30;;;1.20;;
32321;SDS011;61553;48.994;8.940;2022-07-01T12:55:21;3.45;;;0.93;;
32321;SDS011;61553;48.994;8.940;2022-07-01T12:57:47;2.40;;;1.02;;
32321;SDS011;61553;48.994;8.940;2022-07-01T13:00:18;2.70;;;1.13;;
32321;SDS011;61553;48.994;8.940;2022-07-01T13:02:45;3.05;;;0.95;;
32321;SDS011;61553;48.994;8.940;2022-07-01T13:05:11;2.75;;;1.05;;
32321;SDS011;61553;48.994;8.940;2022-07-01T13:07:37;2.35;;;1.00;;
32321;SDS011;61553;48.994;8.940;2022-07-01T13:10:03;3.20;;;1.08;;
32321;SDS011;61553;48.994;8.940;2022-07-01T13:12:29;2.58;;;0.90;;
32321;SDS011;61553;48.994;8.940;2022-07-01T13:14:55;4.93;;;1.23;;
32321;SDS011;61553;48.994;8.940;2022-07-01T13:17:24;3.53;;;1.05;;
32321;SDS011;61553;48.994;8.940;2022-07-01T13:19:50;3.78;;;0.88;;
32321;SDS011;61553;48.994;8.940;2022-07-01T13:22:16;1.77;;;0.77;;
32321;SDS011;61553;48.994;8.940;2022-07-01T13:24:42;2.58;;;1.33;;
32321;SDS011;61553;48.994;8.940;2022-07-01T13:27:08;3.30;;;0.85;;
32321;SDS011;61553;48.994;8.940;2022-07-01T13:29:34;3.00;;;0.93;;
32321;SDS011;61553;48.994;8.940;2022-07-01T13:32:00;3.38;;;1.10;;
32321;SDS011;61553;48.994;8.940;2022-07-01T13:34:26;2.00;;;0.75;;
32321;SDS011;61553;48.994;8.940;2022-07-01T13:36:51;4.35;;;1.85;;
32321;SDS011;61553;48.994;8.940;2022-07-01T13:39:17;1.80;;;0.77;;
32321;SDS011;61553;48.994;8.940;2022-07-01T13:41:43;3.35;;;0.90;;
32321;SDS011;61553;48.994;8.940;2022-07-01T13:44:09;3.70;;;0.98;;
32321;SDS011;61553;48.994;8.940;2022-07-01T13:46:34;3.58;;;1.10;;
32321;SDS011;61553;48.994;8.940;2022-07-01T13:49:00;4.18;;;0.93;;
32321;SDS011;61553;48.994;8.940;2022-07-01T13:51:27;1.70;;;0.77;;
32321;SDS011;61553;48.994;8.940;2022-07-01T13:53:52;2.85;;;1.20;;
32321;SDS011;61553;48.994;8.940;2022-07-01T13:56:18;5.82;;;1.00;;
32321;SDS011;61553;48.994;8.940;2022-07-01T13:58:44;1.60;;;0.90;;
32321;SDS011;61553;48.994;8.940;2022-07-01T14:01:09;2.15;;;0.80;;
32321;SDS011;61553;48.994;8.940;2022-07-01T14:03:35;3.95;;;1.05;;
32321;SDS011;61553;48.994;8.940;2022-07-01T14:06:01;16.75;;;2.10;;
32321;SDS011;61553;48.994;8.940;2022-07-01T14:08:26;7.07;;;1.08;;
32321;SDS011;61553;48.994;8.940;2022-07-01T14:10:53;1.90;;;0.90;;
32321;SDS011;61553;48.994;8.940;2022-07-01T14:13:19;3.50;;;0.70;;
32321;SDS011;61553;48.994;8.940;2022-07-01T14:15:48;1.40;;;0.88;;
32321;SDS011;61553;48.994;8.940;2022-07-01T14:18:14;2.45;;;1.05;;
32321;SDS011;61553;48.994;8.940;2022-07-01T14:20:40;2.35;;;0.75;;
32321;SDS011;61553;48.994;8.940;2022-07-01T14:23:06;2.40;;;0.70;;
32321;SDS011;61553;48.994;8.940;2022-07-01T14:25:32;2.97;;;1.00;;
32321;SDS011;61553;48.994;8.940;2022-07-01T14:27:58;2.05;;;0.60;;
32321;SDS011;61553;48.994;8.940;2022-07-01T14:30:24;3.90;;;0.98;;
32321;SDS011;61553;48.994;8.940;2022-07-01T14:32:50;2.78;;;0.88;;
32321;SDS011;61553;48.994;8.940;2022-07-01T14:35:15;7.70;;;1.48;;
32321;SDS011;61553;48.994;8.940;2022-07-01T14:37:41;1.85;;;0.60;;
32321;SDS011;61553;48.994;8.940;2022-07-01T14:40:08;1.50;;;0.70;;
32321;SDS011;61553;48.994;8.940;2022-07-01T14:42:37;1.23;;;0.50;;
32321;SDS011;61553;48.994;8.940;2022-07-01T14:45:04;1.38;;;0.70;;
32321;SDS011;61553;48.994;8.940;2022-07-01T14:47:31;2.20;;;0.90;;
32321;SDS011;61553;48.994;8.940;2022-07-01T14:49:57;3.65;;;1.10;;
32321;SDS011;61553;48.994;8.940;2022-07-01T14:52:23;2.08;;;0.80;;
32321;SDS011;61553;48.994;8.940;2022-07-01T14:54:52;2.42;;;0.80;;
32321;SDS011;61553;48.994;8.940;2022-07-01T14:57:19;2.40;;;0.90;;
32321;SDS011;61553;48.994;8.940;2022-07-01T14:59:45;1.92;;;0.75;;
32321;SDS011;61553;48.994;8.940;2022-07-01T15:02:11;3.05;;;0.70;;
32321;SDS011;61553;48.994;8.940;2022-07-01T15:04:36;1.27;;;0.60;;
32321;SDS011;61553;48.994;8.940;2022-07-01T15:07:05;2.05;;;0.73;;
32321;SDS011;61553;48.994;8.940;2022-07-01T15:09:31;2.10;;;0.73;;
32321;SDS011;61553;48.994;8.940;2022-07-01T15:11:57;2.45;;;0.63;;
32321;SDS011;61553;48.994;8.940;2022-07-01T15:14:22;1.80;;;0.77;;
32321;SDS011;61553;48.994;8.940;2022-07-01T15:16:49;3.17;;;0.65;;
32321;SDS011;61553;48.994;8.940;2022-07-01T15:19:15;2.75;;;0.80;;
32321;SDS011;61553;48.994;8.940;2022-07-01T15:21:41;2.05;;;1.00;;
32321;SDS011;61553;48.994;8.940;2022-07-01T15:24:07;2.00;;;0.90;;
32321;SDS011;61553;48.994;8.940;2022-07-01T15:26:32;1.67;;;0.73;;
32321;SDS011;61553;48.994;8.940;2022-07-01T15:28:58;1.65;;;0.70;;
32321;SDS011;61553;48.994;8.940;2022-07-01T15:31:24;2.08;;;0.90;;
32321;SDS011;61553;48.994;8.940;2022-07-01T15:33:50;1.17;;;0.70;;
32321;SDS011;61553;48.994;8.940;2022-07-01T15:36:19;2.75;;;0.90;;
32321;SDS011;61553;48.994;8.940;2022-07-01T15:38:44;2.13;;;0.60;;